createdAt,value
2022-07-31T00:01:55.119Z,7.82
2022-07-31T00:04:28.418Z,7.55
2022-07-31T00:07:00.795Z,6.85
2022-07-31T00:09:49.154Z,7.07
2022-07-31T00:12:25.161Z,7.60
2022-07-31T00:14:57.162Z,6.95
2022-07-31T00:17:29.156Z,6.85
2022-07-31T00:20:01.150Z,6.50
2022-07-31T00:22:33.435Z,5.47
2022-07-31T00:25:06.314Z,4.78
2022-07-31T00:27:39.699Z,5.20
2022-07-31T00:30:13.568Z,5.65
2022-07-31T00:32:46.147Z,6.00
2022-07-31T00:35:18.140Z,4.22
2022-07-31T00:38:02.166Z,5.57
2022-07-31T00:40:50.455Z,5.32
2022-07-31T00:43:22.429Z,5.70
2022-07-31T00:45:58.522Z,6.40
2022-07-31T00:48:31.302Z,6.70
2022-07-31T00:51:03.587Z,7.45
2022-07-31T00:53:35.618Z,8.05
2022-07-31T00:56:07.629Z,7.07
2022-07-31T00:58:39.724Z,8.30
2022-07-31T01:01:11.751Z,8.32
2022-07-31T01:03:43.983Z,8.57
2022-07-31T01:06:16.013Z,8.60
2022-07-31T01:08:49.478Z,8.93
2022-07-31T01:11:45.071Z,8.38
2022-07-31T01:14:20.592Z,7.90
2022-07-31T01:16:54.553Z,8.07
2022-07-31T01:19:42.579Z,8.88
2022-07-31T01:22:33.805Z,8.40
2022-07-31T01:25:33.203Z,8.90
2022-07-31T01:28:23.126Z,8.32
2022-07-31T01:31:26.763Z,10.88
2022-07-31T01:34:20.506Z,10.07
2022-07-31T01:37:02.019Z,12.65
2022-07-31T01:39:36.268Z,12.60
2022-07-31T01:42:12.825Z,13.82
2022-07-31T01:44:49.639Z,13.88
2022-07-31T01:47:23.462Z,14.25
2022-07-31T01:49:58.631Z,12.00
2022-07-31T01:52:33.592Z,13.73
2022-07-31T01:55:07.292Z,13.43
2022-07-31T01:57:41.787Z,12.43
2022-07-31T02:00:33.740Z,12.77
2022-07-31T02:03:09.718Z,14.07
2022-07-31T02:05:44.563Z,13.85
2022-07-31T02:08:18.785Z,12.50
2022-07-31T02:10:52.811Z,10.85
2022-07-31T02:13:26.690Z,11.27
2022-07-31T02:16:00.756Z,11.70
2022-07-31T02:18:39.888Z,11.10
2022-07-31T02:21:12.143Z,11.15
2022-07-31T02:23:44.245Z,11.23
2022-07-31T02:26:17.828Z,9.93
2022-07-31T02:28:51.233Z,10.05
2022-07-31T02:31:24.474Z,10.60
2022-07-31T02:33:56.696Z,9.23
2022-07-31T02:36:30.763Z,10.63
2022-07-31T02:39:03.922Z,10.85
2022-07-31T02:41:36.684Z,10.50
2022-07-31T02:44:12.033Z,9.75
2022-07-31T02:46:45.188Z,8.73
2022-07-31T02:49:17.717Z,9.07
2022-07-31T02:51:49.722Z,7.85
2022-07-31T02:54:21.787Z,8.40
2022-07-31T02:56:54.229Z,8.55
2022-07-31T02:59:26.309Z,9.40
2022-07-31T03:01:59.089Z,8.70
2022-07-31T03:04:31.473Z,9.73
2022-07-31T03:07:03.911Z,6.97
2022-07-31T03:09:36.527Z,8.13
2022-07-31T03:12:08.717Z,7.85
2022-07-31T03:14:40.885Z,8.90
2022-07-31T03:17:13.031Z,8.35
2022-07-31T03:19:45.475Z,7.97
2022-07-31T03:22:17.554Z,8.32
2022-07-31T03:24:49.835Z,8.75
2022-07-31T03:27:23.717Z,8.80
2022-07-31T03:29:55.705Z,8.52
2022-07-31T03:32:27.657Z,9.18
2022-07-31T03:34:59.621Z,8.82
2022-07-31T03:37:31.633Z,8.65
2022-07-31T03:40:03.950Z,8.60
2022-07-31T03:42:35.921Z,8.57
2022-07-31T03:45:10.122Z,7.47
2022-07-31T03:47:42.226Z,7.60
2022-07-31T03:50:15.362Z,9.13
2022-07-31T03:52:48.034Z,9.00
2022-07-31T03:55:20.221Z,8.73
2022-07-31T03:57:52.775Z,7.50
2022-07-31T04:00:27.534Z,8.40
2022-07-31T04:03:11.311Z,7.65
2022-07-31T04:05:43.443Z,7.70
2022-07-31T04:08:16.089Z,9.05
2022-07-31T04:10:48.411Z,7.93
2022-07-31T04:13:20.444Z,7.13
2022-07-31T04:15:52.471Z,6.90
2022-07-31T04:18:24.411Z,8.30
2022-07-31T04:20:56.378Z,8.23
2022-07-31T04:23:32.432Z,6.78
2022-07-31T04:26:05.073Z,6.75
2022-07-31T04:28:38.109Z,6.05
2022-07-31T04:31:10.106Z,6.05
2022-07-31T04:33:47.934Z,6.35
2022-07-31T04:36:29.652Z,6.15
2022-07-31T04:39:03.145Z,6.57
2022-07-31T04:41:35.132Z,5.43
2022-07-31T04:44:07.098Z,5.50
2022-07-31T04:46:44.126Z,5.53
2022-07-31T04:49:16.206Z,5.75
2022-07-31T04:51:48.574Z,5.40
2022-07-31T04:54:20.547Z,5.78
2022-07-31T04:56:52.801Z,5.65
2022-07-31T05:00:00.458Z,5.22
2022-07-31T05:02:17.628Z,5.28
2022-07-31T05:04:53.992Z,5.05
2022-07-31T05:07:29.282Z,5.63
2022-07-31T05:10:01.349Z,4.70
2022-07-31T05:12:33.319Z,4.88
2022-07-31T05:15:06.276Z,4.85
2022-07-31T05:17:38.590Z,4.10
2022-07-31T05:20:11.767Z,6.95
2022-07-31T05:22:43.869Z,5.28
2022-07-31T05:25:15.900Z,6.45
2022-07-31T05:27:50.105Z,5.75
2022-07-31T05:30:29.949Z,6.25
2022-07-31T05:33:02.645Z,6.55
2022-07-31T05:35:34.673Z,6.85
2022-07-31T05:38:06.740Z,6.20
2022-07-31T05:40:44.015Z,7.18
2022-07-31T05:43:16.098Z,6.20
2022-07-31T05:45:48.154Z,6.82
2022-07-31T05:48:20.241Z,7.20
2022-07-31T05:50:52.875Z,7.00
2022-07-31T05:53:25.193Z,6.63
2022-07-31T05:55:57.165Z,6.13
2022-07-31T05:58:29.231Z,5.43
2022-07-31T06:01:02.441Z,5.95
2022-07-31T06:03:52.027Z,6.13
2022-07-31T06:06:24.861Z,5.18
2022-07-31T06:09:00.647Z,5.50
2022-07-31T06:11:35.986Z,4.82
2022-07-31T06:14:08.409Z,4.47
2022-07-31T06:16:40.398Z,4.25
2022-07-31T06:19:12.438Z,4.07
2022-07-31T06:21:44.391Z,4.28
2022-07-31T06:24:16.390Z,3.95
2022-07-31T06:26:49.359Z,4.43
2022-07-31T06:29:23.830Z,3.78
2022-07-31T06:32:14.426Z,3.33
2022-07-31T06:34:46.449Z,3.28
2022-07-31T06:37:19.979Z,3.78
2022-07-31T06:39:56.108Z,3.80
2022-07-31T06:42:28.835Z,3.25
2022-07-31T06:45:00.875Z,3.70
2022-07-31T06:47:32.806Z,3.15
2022-07-31T06:50:06.631Z,3.47
2022-07-31T06:52:38.737Z,3.60
2022-07-31T06:55:11.535Z,3.00
2022-07-31T06:57:43.506Z,2.78
2022-07-31T07:00:20.625Z,2.90
2022-07-31T07:02:53.019Z,3.35
2022-07-31T07:05:25.164Z,2.80
2022-07-31T07:07:57.105Z,2.70
2022-07-31T07:10:29.074Z,3.03
2022-07-31T07:13:01.303Z,2.78
2022-07-31T07:15:33.347Z,3.13
2022-07-31T07:18:07.001Z,2.78
2022-07-31T07:20:39.537Z,2.83
2022-07-31T07:23:11.555Z,2.38
2022-07-31T07:25:43.659Z,2.40
2022-07-31T07:28:30.375Z,2.63
2022-07-31T07:31:04.727Z,2.95
2022-07-31T07:33:40.537Z,3.20
2022-07-31T07:36:22.484Z,3.30
2022-07-31T07:38:56.430Z,2.92
2022-07-31T07:41:28.455Z,3.58
2022-07-31T07:44:00.429Z,2.92
2022-07-31T07:46:32.442Z,2.72
2022-07-31T07:49:05.035Z,3.42
2022-07-31T07:51:37.309Z,3.10
2022-07-31T07:54:09.357Z,2.63
2022-07-31T07:56:41.464Z,3.10
2022-07-31T07:59:15.023Z,3.78
2022-07-31T08:01:48.389Z,2.70
2022-07-31T08:04:20.366Z,3.22
2022-07-31T08:06:52.738Z,2.55
2022-07-31T08:09:25.776Z,2.38
2022-07-31T08:11:57.802Z,2.85
2022-07-31T08:14:30.514Z,2.13
2022-07-31T08:17:02.579Z,2.28
2022-07-31T08:19:34.717Z,1.90
2022-07-31T08:22:07.130Z,2.88
2022-07-31T08:24:39.562Z,1.67
2022-07-31T08:27:40.282Z,1.65
2022-07-31T08:30:12.920Z,1.70
2022-07-31T08:32:44.967Z,1.58
2022-07-31T08:35:17.026Z,1.40
2022-07-31T08:37:52.074Z,1.65
2022-07-31T08:40:43.626Z,2.38
2022-07-31T08:46:08.485Z,1.38
2022-07-31T08:48:41.831Z,1.42
2022-07-31T08:51:14.279Z,1.73
2022-07-31T08:53:48.842Z,1.58
2022-07-31T08:56:21.321Z,2.03
2022-07-31T08:58:55.789Z,1.55
2022-07-31T09:01:28.311Z,1.95
2022-07-31T09:04:00.950Z,1.52
2022-07-31T09:06:32.903Z,1.67
2022-07-31T09:09:06.086Z,1.63
2022-07-31T09:11:50.611Z,1.48
2022-07-31T09:14:34.910Z,1.60
2022-07-31T09:17:15.541Z,1.80
2022-07-31T09:19:54.047Z,1.63
2022-07-31T09:22:29.867Z,1.50
2022-07-31T09:25:16.399Z,1.60
2022-07-31T09:27:48.857Z,1.75
2022-07-31T09:30:20.916Z,2.22
2022-07-31T09:32:54.068Z,1.75
2022-07-31T09:35:26.128Z,1.95
2022-07-31T09:38:00.977Z,2.00
2022-07-31T09:40:55.463Z,1.70
2022-07-31T09:43:31.372Z,1.60
2022-07-31T09:46:06.117Z,1.65
2022-07-31T09:48:38.276Z,2.08
2022-07-31T09:51:16.115Z,2.00
2022-07-31T09:53:53.348Z,2.35
2022-07-31T09:56:33.811Z,1.98
2022-07-31T09:59:08.935Z,2.35
2022-07-31T10:01:46.870Z,1.90
2022-07-31T10:04:21.052Z,1.83
2022-07-31T10:06:54.495Z,1.88
2022-07-31T10:09:27.575Z,1.95
2022-07-31T10:12:02.242Z,2.05
2022-07-31T10:14:40.596Z,2.00
2022-07-31T10:17:20.851Z,1.95
2022-07-31T10:20:05.004Z,2.17
2022-07-31T10:22:44.459Z,2.17
2022-07-31T10:25:28.185Z,3.08
2022-07-31T10:28:01.894Z,42.05
2022-07-31T10:30:33.963Z,106.05
2022-07-31T10:33:17.481Z,87.57
2022-07-31T10:36:26.159Z,159.40
2022-07-31T10:39:04.216Z,132.52
2022-07-31T10:41:56.634Z,57.25
2022-07-31T10:44:39.082Z,28.48
2022-07-31T10:47:16.269Z,7.32
2022-07-31T10:49:50.099Z,3.50
2022-07-31T10:52:31.060Z,4.47
2022-07-31T10:55:18.501Z,2.58
2022-07-31T10:57:56.771Z,2.42
2022-07-31T11:00:30.303Z,2.07
2022-07-31T11:03:18.881Z,3.10
2022-07-31T11:06:01.467Z,3.80
2022-07-31T11:08:46.602Z,4.22
2022-07-31T11:11:26.124Z,2.17
2022-07-31T11:14:00.213Z,1.98
2022-07-31T11:16:32.224Z,2.08
2022-07-31T11:19:06.775Z,1.92
2022-07-31T11:21:41.487Z,1.95
2022-07-31T11:24:23.518Z,3.05
2022-07-31T11:26:58.315Z,2.60
2022-07-31T11:30:01.084Z,3.25
2022-07-31T11:32:30.882Z,2.00
2022-07-31T11:35:02.854Z,2.00
2022-07-31T11:37:46.118Z,2.30
2022-07-31T11:40:23.738Z,2.17
2022-07-31T11:45:55.208Z,2.25
2022-07-31T11:48:35.994Z,2.10
2022-07-31T11:51:18.757Z,2.38
2022-07-31T11:53:57.426Z,1.95
2022-07-31T11:56:30.237Z,2.15
2022-07-31T11:59:02.224Z,1.98
2022-07-31T12:01:34.878Z,2.22
2022-07-31T12:04:08.988Z,2.13
2022-07-31T12:06:41.403Z,1.80
2022-07-31T12:10:02.471Z,1.83
2022-07-31T12:12:07.470Z,1.60
2022-07-31T12:14:40.201Z,1.67
2022-07-31T12:17:21.613Z,1.90
2022-07-31T12:19:57.767Z,2.20
2022-07-31T12:22:30.050Z,1.80
2022-07-31T12:25:06.140Z,1.85
2022-07-31T12:27:41.191Z,2.00
2022-07-31T12:30:17.775Z,2.05
2022-07-31T12:32:50.859Z,1.80
2022-07-31T12:35:23.057Z,2.30
2022-07-31T12:37:55.275Z,2.45
2022-07-31T12:40:29.089Z,2.17
2022-07-31T12:43:01.865Z,2.38
2022-07-31T12:45:39.845Z,2.38
2022-07-31T12:48:11.804Z,3.20
2022-07-31T12:50:43.764Z,2.80
2022-07-31T12:53:15.742Z,3.08
2022-07-31T12:55:47.714Z,4.25
2022-07-31T12:58:20.182Z,5.70
2022-07-31T13:00:54.934Z,5.47
2022-07-31T13:03:38.992Z,6.15
2022-07-31T13:06:18.481Z,6.40
2022-07-31T13:08:50.644Z,6.68
2022-07-31T13:11:25.259Z,5.95
2022-07-31T13:13:58.090Z,6.25
2022-07-31T13:16:30.320Z,7.63
2022-07-31T13:19:02.543Z,7.50
2022-07-31T13:21:42.362Z,7.10
2022-07-31T13:24:21.640Z,7.22
2022-07-31T13:26:53.683Z,8.35
2022-07-31T13:29:25.687Z,8.13
2022-07-31T13:31:57.639Z,8.57
2022-07-31T13:34:29.711Z,8.82
2022-07-31T13:37:02.070Z,8.85
2022-07-31T13:39:34.317Z,6.75
2022-07-31T13:42:06.416Z,7.50
2022-07-31T13:44:38.455Z,7.80
2022-07-31T13:47:10.438Z,7.80
2022-07-31T13:49:42.503Z,6.78
2022-07-31T13:52:14.503Z,5.85
2022-07-31T13:54:46.602Z,6.78
2022-07-31T13:57:18.591Z,6.55
2022-07-31T13:59:50.587Z,5.30
2022-07-31T14:02:22.674Z,6.80
2022-07-31T14:04:54.745Z,6.30
2022-07-31T14:07:48.191Z,6.13
2022-07-31T14:10:20.907Z,5.95
2022-07-31T14:12:53.634Z,6.15
2022-07-31T14:15:30.109Z,7.18
2022-07-31T14:18:07.828Z,7.70
2022-07-31T14:20:40.419Z,7.13
2022-07-31T14:23:12.567Z,6.47
2022-07-31T14:25:44.798Z,5.63
2022-07-31T14:28:16.888Z,5.15
2022-07-31T14:30:49.809Z,6.55
2022-07-31T14:33:21.834Z,6.35
2022-07-31T14:35:55.411Z,6.38
2022-07-31T14:38:27.914Z,5.25
2022-07-31T14:41:03.808Z,5.68
2022-07-31T14:43:36.370Z,7.03
2022-07-31T14:46:08.393Z,7.97
2022-07-31T14:48:40.371Z,7.68
2022-07-31T14:51:18.643Z,7.43
2022-07-31T14:53:52.447Z,6.97
2022-07-31T14:56:45.326Z,7.75
2022-07-31T14:59:16.409Z,8.32
2022-07-31T15:01:48.434Z,8.18
2022-07-31T15:04:20.599Z,8.88
2022-07-31T15:07:07.810Z,9.18
2022-07-31T15:09:44.936Z,10.25
2022-07-31T15:12:17.093Z,9.68
2022-07-31T15:14:49.098Z,10.23
2022-07-31T15:17:21.091Z,10.85
2022-07-31T15:19:53.114Z,11.52
2022-07-31T15:22:25.854Z,14.35
2022-07-31T15:24:57.875Z,12.95
2022-07-31T15:27:29.892Z,14.23
2022-07-31T15:30:07.059Z,15.32
2022-07-31T15:32:39.960Z,16.27
2022-07-31T15:35:13.129Z,165.48
2022-07-31T15:37:45.708Z,33.50
2022-07-31T15:40:18.267Z,23.63
2022-07-31T15:42:50.329Z,20.50
2022-07-31T15:45:22.567Z,18.15
2022-07-31T15:47:54.657Z,17.92
2022-07-31T15:50:26.709Z,21.98
2022-07-31T15:52:58.725Z,18.83
2022-07-31T15:55:30.857Z,21.42
2022-07-31T15:58:02.863Z,22.33
2022-07-31T16:00:35.005Z,21.65
2022-07-31T16:03:07.032Z,22.67
2022-07-31T16:05:39.306Z,22.00
2022-07-31T16:08:28.730Z,21.00
2022-07-31T16:11:04.328Z,23.67
2022-07-31T16:13:36.863Z,24.73
2022-07-31T16:16:11.386Z,25.25
2022-07-31T16:18:43.452Z,21.38
2022-07-31T16:21:15.711Z,18.33
2022-07-31T16:23:47.761Z,15.55
2022-07-31T16:26:20.056Z,17.02
2022-07-31T16:28:54.140Z,16.40
2022-07-31T16:31:30.682Z,14.77
2022-07-31T16:34:03.406Z,17.83
2022-07-31T16:36:35.766Z,16.20
2022-07-31T16:39:19.917Z,16.65
2022-07-31T16:41:54.842Z,17.48
2022-07-31T16:44:27.357Z,17.67
2022-07-31T16:47:00.481Z,18.55
2022-07-31T16:49:36.940Z,18.60
2022-07-31T16:52:09.223Z,16.52
2022-07-31T16:54:42.046Z,18.33
2022-07-31T16:57:15.294Z,19.60
2022-07-31T16:59:57.820Z,19.40
2022-07-31T17:02:30.229Z,19.17
2022-07-31T17:05:02.238Z,15.93
2022-07-31T17:07:34.214Z,16.15
2022-07-31T17:10:07.131Z,15.70
2022-07-31T17:12:39.161Z,15.88
2022-07-31T17:15:11.865Z,15.77
2022-07-31T17:17:44.072Z,15.32
2022-07-31T17:20:23.218Z,15.55
2022-07-31T17:22:55.319Z,15.15
2022-07-31T17:25:27.633Z,16.58
2022-07-31T17:28:00.003Z,14.90
2022-07-31T17:30:32.755Z,14.40
2022-07-31T17:33:05.078Z,14.00
2022-07-31T17:35:37.414Z,14.40
2022-07-31T17:38:09.434Z,14.00
2022-07-31T17:40:43.871Z,13.90
2022-07-31T17:43:16.441Z,14.15
2022-07-31T17:46:05.910Z,14.70
2022-07-31T17:48:41.260Z,13.27
2022-07-31T17:51:13.299Z,14.07
2022-07-31T17:53:55.330Z,14.02
2022-07-31T17:56:31.090Z,12.70
2022-07-31T17:59:06.487Z,14.55
2022-07-31T18:01:38.609Z,12.82
2022-07-31T18:04:11.095Z,13.27
2022-07-31T18:06:54.116Z,13.48
2022-07-31T18:09:28.630Z,14.57
2022-07-31T18:12:01.294Z,13.80
2022-07-31T18:14:33.549Z,12.40
2022-07-31T18:17:05.841Z,12.30
2022-07-31T18:19:37.934Z,13.30
2022-07-31T18:22:09.984Z,13.57
2022-07-31T18:24:42.103Z,14.55
2022-07-31T18:27:14.320Z,14.02
2022-07-31T18:29:54.989Z,13.95
2022-07-31T18:32:31.177Z,11.05
2022-07-31T18:35:04.434Z,13.85
2022-07-31T18:37:36.882Z,13.05
2022-07-31T18:40:09.584Z,12.70
2022-07-31T18:42:42.943Z,13.45
2022-07-31T18:45:14.986Z,11.65
2022-07-31T18:47:47.064Z,13.10
2022-07-31T18:50:59.138Z,14.57
2022-07-31T18:53:11.233Z,13.02
2022-07-31T18:55:46.133Z,14.40
2022-07-31T18:58:18.217Z,13.05
2022-07-31T19:00:54.734Z,12.55
2022-07-31T19:03:29.817Z,12.30
2022-07-31T19:06:01.804Z,13.27
2022-07-31T19:08:33.890Z,11.50
2022-07-31T19:11:05.915Z,11.43
2022-07-31T19:13:38.154Z,12.70
2022-07-31T19:16:10.186Z,12.93
2022-07-31T19:18:43.948Z,12.95
2022-07-31T19:21:22.947Z,12.73
2022-07-31T19:24:08.351Z,14.32
2022-07-31T19:26:40.334Z,14.13
2022-07-31T19:29:12.940Z,14.73
2022-07-31T19:31:49.122Z,14.77
2022-07-31T19:34:21.215Z,16.92
2022-07-31T19:36:53.504Z,14.10
2022-07-31T19:39:25.505Z,20.70
2022-07-31T19:42:11.387Z,15.55
2022-07-31T19:44:44.301Z,24.90
2022-07-31T19:47:16.318Z,19.25
2022-07-31T19:49:48.831Z,16.20
2022-07-31T19:52:21.280Z,17.52
2022-07-31T19:54:53.394Z,19.42
2022-07-31T19:57:25.412Z,17.83
2022-07-31T19:59:58.846Z,23.02
2022-07-31T20:02:30.808Z,17.63
2022-07-31T20:05:03.059Z,16.80
2022-07-31T20:07:35.190Z,15.82
2022-07-31T20:10:12.729Z,16.38
2022-07-31T20:12:44.978Z,18.58
2022-07-31T20:15:17.249Z,18.60
2022-07-31T20:17:49.421Z,17.08
2022-07-31T20:20:21.459Z,16.17
2022-07-31T20:22:53.496Z,16.83
2022-07-31T20:25:25.573Z,18.90
2022-07-31T20:27:57.571Z,26.02
2022-07-31T20:30:30.584Z,18.23
2022-07-31T20:33:02.525Z,21.58
2022-07-31T20:35:49.213Z,18.23
2022-07-31T20:38:23.263Z,21.63
2022-07-31T20:40:56.122Z,24.52
2022-07-31T20:43:30.314Z,16.77
2022-07-31T20:46:02.316Z,16.73
2022-07-31T20:48:35.162Z,16.42
2022-07-31T20:51:09.255Z,15.07
2022-07-31T20:53:41.290Z,14.85
2022-07-31T20:56:13.824Z,14.50
2022-07-31T20:58:51.148Z,10.98
2022-07-31T21:01:24.998Z,12.23
2022-07-31T21:03:57.185Z,12.23
2022-07-31T21:06:29.211Z,10.88
2022-07-31T21:09:01.167Z,11.25
2022-07-31T21:11:36.544Z,9.52
2022-07-31T21:14:08.637Z,7.95
2022-07-31T21:16:41.483Z,7.97
2022-07-31T21:19:13.571Z,7.32
2022-07-31T21:21:45.621Z,6.88
2022-07-31T21:24:18.200Z,6.30
2022-07-31T21:26:53.417Z,6.30
2022-07-31T21:29:30.242Z,6.15
2022-07-31T21:32:02.996Z,5.70
2022-07-31T21:34:37.053Z,5.22
2022-07-31T21:37:09.480Z,5.32
2022-07-31T21:39:48.722Z,5.40
2022-07-31T21:42:21.471Z,4.80
2022-07-31T21:44:56.333Z,4.22
2022-07-31T21:47:52.875Z,3.58
2022-07-31T21:50:27.866Z,3.97
2022-07-31T21:53:01.519Z,3.55
2022-07-31T21:55:33.523Z,3.17
2022-07-31T21:58:07.209Z,3.25
2022-07-31T22:00:39.500Z,6.03
2022-07-31T22:03:11.625Z,4.95
2022-07-31T22:06:02.076Z,2.85
2022-07-31T22:08:34.195Z,1.85
2022-07-31T22:11:06.312Z,2.22
2022-07-31T22:13:38.589Z,1.40
2022-07-31T22:16:10.632Z,1.60
2022-07-31T22:18:43.082Z,1.63
2022-07-31T22:21:15.926Z,1.65
2022-07-31T22:23:48.112Z,1.55
2022-07-31T22:26:20.478Z,1.48
2022-07-31T22:28:53.740Z,1.83
2022-07-31T22:31:25.970Z,2.03
2022-07-31T22:33:58.084Z,1.52
2022-07-31T22:36:30.276Z,1.52
2022-07-31T22:39:02.396Z,1.20
2022-07-31T22:41:34.416Z,1.52
2022-07-31T22:44:13.681Z,1.55
2022-07-31T22:49:21.764Z,1.20
2022-07-31T22:51:53.786Z,1.80
2022-07-31T22:54:25.826Z,1.80
2022-07-31T22:56:57.886Z,1.67
2022-07-31T22:59:29.890Z,1.88
2022-07-31T23:02:04.266Z,1.75
2022-07-31T23:04:37.045Z,1.45
2022-07-31T23:07:09.938Z,1.83
2022-07-31T23:09:41.969Z,1.33
2022-07-31T23:12:13.927Z,1.77
2022-07-31T23:14:46.062Z,1.60
2022-07-31T23:17:22.507Z,2.25
2022-07-31T23:19:55.846Z,1.98
2022-07-31T23:22:33.920Z,2.20
2022-07-31T23:25:07.606Z,2.20
2022-07-31T23:27:39.608Z,2.83
2022-07-31T23:30:12.060Z,2.85
2022-07-31T23:32:44.047Z,3.75
2022-07-31T23:35:16.139Z,3.85
2022-07-31T23:37:48.167Z,3.67
2022-07-31T23:40:20.215Z,3.45
2022-07-31T23:42:52.246Z,4.25
2022-07-31T23:45:24.375Z,3.90
2022-07-31T23:47:58.957Z,4.20
2022-07-31T23:50:31.307Z,3.95
2022-07-31T23:53:03.327Z,4.72
2022-07-31T23:55:37.795Z,5.15
2022-07-31T23:58:14.722Z,5.17
